Time;durP1;ratioP1;P1;durP2;ratioP2;P2;SDS_P1;SDS_P2;PMS_P1;PMS_P2;Temp;Humidity;BMP_temperature;BMP_pressure;BME280_temperature;BME280_humidity;BME280_pressure;Samples;Min_cycle;Max_cycle;Signal;HPM_P1;HPM_P2
2022/11/22 00:00:28;;;;;;;46.08;22.80;;;;;;;;;;5059276;28;20528;-73
2022/11/22 00:02:54;;;;;;;54.63;25.10;;;;;;;;;;5075547;28;20418;-73
2022/11/22 00:05:20;;;;;;;67.43;26.90;;;;;;;;;;5082428;28;20466;-73
2022/11/22 00:07:46;;;;;;;42.53;24.27;;;;;;;;;;5060219;28;20414;-73
2022/11/22 00:10:13;;;;;;;42.53;23.85;;;;;;;;;;5095076;28;20412;-73
2022/11/22 00:12:40;;;;;;;42.08;23.95;;;;;;;;;;5093302;28;20429;-73
2022/11/22 00:15:06;;;;;;;42.25;22.33;;;;;;;;;;5074879;28;20520;-73
2022/11/22 00:17:33;;;;;;;41.13;22.55;;;;;;;;;;5075624;28;20409;-73
2022/11/22 00:19:59;;;;;;;39.97;21.40;;;;;;;;;;5079873;28;20424;-73
2022/11/22 00:22:25;;;;;;;42.50;22.67;;;;;;;;;;5083593;28;20460;-73
2022/11/22 00:24:52;;;;;;;38.83;21.23;;;;;;;;;;5095223;28;21003;-73
2022/11/22 00:27:19;;;;;;;38.40;22.02;;;;;;;;;;5086129;28;20772;-72
2022/11/22 00:29:45;;;;;;;40.80;21.35;;;;;;;;;;5082410;28;20441;-72
2022/11/22 00:32:11;;;;;;;41.43;21.63;;;;;;;;;;5062112;28;20430;-73
2022/11/22 00:34:37;;;;;;;36.03;21.25;;;;;;;;;;5093249;28;20469;-72
2022/11/22 00:37:03;;;;;;;34.15;20.27;;;;;;;;;;5074068;28;20418;-73
2022/11/22 00:39:29;;;;;;;34.15;20.40;;;;;;;;;;5076277;28;21079;-73
2022/11/22 00:41:55;;;;;;;71.45;22.42;;;;;;;;;;5088151;28;20826;-74
2022/11/22 00:44:21;;;;;;;31.40;20.05;;;;;;;;;;5077092;28;20413;-72
2022/11/22 00:46:47;;;;;;;33.25;18.98;;;;;;;;;;5073393;28;20431;-72
2022/11/22 00:49:13;;;;;;;38.22;20.15;;;;;;;;;;5058403;28;20885;-73
2022/11/22 00:51:39;;;;;;;31.48;20.10;;;;;;;;;;5071684;28;20447;-73
2022/11/22 00:54:05;;;;;;;53.53;22.20;;;;;;;;;;5069677;28;20421;-73
2022/11/22 00:56:32;;;;;;;31.90;19.50;;;;;;;;;;5062016;28;20422;-73
2022/11/22 00:58:58;;;;;;;29.48;19.92;;;;;;;;;;5094236;28;20431;-73
2022/11/22 01:01:24;;;;;;;33.20;19.85;;;;;;;;;;5067753;28;20418;-73
2022/11/22 01:03:50;;;;;;;31.88;20.20;;;;;;;;;;5075930;28;20465;-73
2022/11/22 01:06:16;;;;;;;32.08;19.00;;;;;;;;;;5093948;28;20415;-73
2022/11/22 01:08:42;;;;;;;33.28;19.33;;;;;;;;;;5094775;28;20407;-73
2022/11/22 01:11:08;;;;;;;33.80;20.60;;;;;;;;;;5091989;28;20416;-73
2022/11/22 01:13:35;;;;;;;34.95;21.63;;;;;;;;;;5083822;28;20429;-73
2022/11/22 01:16:01;;;;;;;36.45;21.52;;;;;;;;;;5078309;28;20443;-73
2022/11/22 01:18:28;;;;;;;34.22;20.83;;;;;;;;;;5076123;28;20444;-73
2022/11/22 01:20:54;;;;;;;35.22;21.50;;;;;;;;;;5069684;28;20500;-73
2022/11/22 01:23:20;;;;;;;36.80;19.70;;;;;;;;;;5077876;28;20989;-73
2022/11/22 01:25:46;;;;;;;39.38;20.25;;;;;;;;;;5075509;28;20866;-73
2022/11/22 01:28:12;;;;;;;36.65;22.40;;;;;;;;;;5055766;28;20414;-74
2022/11/22 01:30:38;;;;;;;36.55;21.58;;;;;;;;;;5075063;28;20728;-73
2022/11/22 01:33:04;;;;;;;39.17;21.92;;;;;;;;;;5073590;28;20504;-74
2022/11/22 01:35:30;;;;;;;39.43;22.60;;;;;;;;;;5089331;28;20816;-74
2022/11/22 01:37:56;;;;;;;39.90;22.48;;;;;;;;;;5085508;28;20458;-73
2022/11/22 01:40:22;;;;;;;37.95;23.33;;;;;;;;;;5091083;28;20423;-73
2022/11/22 01:42:50;;;;;;;39.08;22.15;;;;;;;;;;5082741;28;20428;-73
2022/11/22 01:45:29;;;;;;;40.00;23.70;;;;;;;;;;5075136;28;20432;-73
2022/11/22 01:48:16;;;;;;;40.53;24.77;;;;;;;;;;5073036;28;20418;-73
2022/11/22 01:50:43;;;;;;;41.53;22.98;;;;;;;;;;5082244;28;20424;-73
2022/11/22 01:53:13;;;;;;;45.63;23.80;;;;;;;;;;5091130;28;20485;-73
2022/11/22 01:55:39;;;;;;;41.70;23.30;;;;;;;;;;5085965;28;20421;-73
2022/11/22 01:58:06;;;;;;;42.83;23.70;;;;;;;;;;5077845;28;20490;-73
2022/11/22 02:00:32;;;;;;;44.10;24.85;;;;;;;;;;5079952;28;20425;-74
2022/11/22 02:03:00;;;;;;;41.50;23.67;;;;;;;;;;5048699;28;20420;-73
2022/11/22 02:05:28;;;;;;;40.17;22.45;;;;;;;;;;5074007;28;20881;-73
2022/11/22 02:08:19;;;;;;;43.17;23.63;;;;;;;;;;5085208;28;20777;-73
2022/11/22 02:10:47;;;;;;;41.28;23.95;;;;;;;;;;5085067;28;20418;-73
2022/11/22 02:13:14;;;;;;;40.90;24.75;;;;;;;;;;5078707;28;20447;-74
2022/11/22 02:15:41;;;;;;;42.20;24.40;;;;;;;;;;5051043;28;20453;-74
2022/11/22 02:18:07;;;;;;;43.45;24.33;;;;;;;;;;5077762;28;20462;-72
2022/11/22 02:20:33;;;;;;;40.08;23.58;;;;;;;;;;5080619;28;20501;-72
2022/11/22 02:23:11;;;;;;;42.00;23.43;;;;;;;;;;5081644;28;20939;-72
2022/11/22 02:25:40;;;;;;;42.05;25.52;;;;;;;;;;5092462;28;20416;-72
2022/11/22 02:28:11;;;;;;;40.50;22.60;;;;;;;;;;5076013;28;20483;-72
2022/11/22 02:30:37;;;;;;;45.47;23.03;;;;;;;;;;5072652;28;20426;-72
2022/11/22 02:33:03;;;;;;;41.05;24.60;;;;;;;;;;5072826;28;20422;-73
2022/11/22 02:35:29;;;;;;;42.67;25.15;;;;;;;;;;5076236;28;20429;-73
2022/11/22 02:38:04;;;;;;;43.25;23.42;;;;;;;;;;5073022;28;20422;-73
2022/11/22 02:40:36;;;;;;;40.33;23.85;;;;;;;;;;5089498;28;20513;-73
2022/11/22 02:43:04;;;;;;;39.75;23.95;;;;;;;;;;5082492;28;20928;-73
2022/11/22 02:45:30;;;;;;;38.75;22.73;;;;;;;;;;5091901;28;20899;-73
2022/11/22 02:48:08;;;;;;;45.10;23.25;;;;;;;;;;5049324;28;20497;-73
2022/11/22 02:50:34;;;;;;;46.55;23.90;;;;;;;;;;5073156;28;20484;-73
2022/11/22 02:53:00;;;;;;;39.22;24.35;;;;;;;;;;5073026;28;20436;-73
2022/11/22 02:55:26;;;;;;;40.30;22.80;;;;;;;;;;5075733;28;20425;-73
2022/11/22 02:57:52;;;;;;;41.45;22.98;;;;;;;;;;5077031;28;20508;-74
2022/11/22 03:00:18;;;;;;;40.72;22.00;;;;;;;;;;5076160;28;20410;-73
2022/11/22 03:02:44;;;;;;;41.80;23.38;;;;;;;;;;5076543;28;20786;-73
2022/11/22 03:05:10;;;;;;;63.40;25.27;;;;;;;;;;5049464;28;20751;-74
2022/11/22 03:07:36;;;;;;;40.80;22.43;;;;;;;;;;5090536;28;20421;-74
2022/11/22 03:10:02;;;;;;;41.30;24.17;;;;;;;;;;5085887;28;20944;-74
2022/11/22 03:12:28;;;;;;;43.13;21.63;;;;;;;;;;5076950;28;20896;-74
2022/11/22 03:14:54;;;;;;;40.85;21.95;;;;;;;;;;5059855;28;21032;-74
2022/11/22 03:17:20;;;;;;;38.35;22.85;;;;;;;;;;5076033;28;20913;-74
2022/11/22 03:19:47;;;;;;;38.72;22.58;;;;;;;;;;5076623;28;20865;-74
2022/11/22 03:22:13;;;;;;;104.90;26.27;;;;;;;;;;5094729;28;20504;-74
2022/11/22 03:24:39;;;;;;;39.13;22.58;;;;;;;;;;5085318;28;20929;-74
2022/11/22 03:27:05;;;;;;;36.13;23.17;;;;;;;;;;5083683;28;20422;-74
2022/11/22 03:29:31;;;;;;;40.90;22.50;;;;;;;;;;5076870;28;20506;-73
2022/11/22 03:31:57;;;;;;;39.97;22.30;;;;;;;;;;5090755;28;20416;-74
2022/11/22 03:34:23;;;;;;;39.38;22.25;;;;;;;;;;5094454;28;20396;-74
2022/11/22 03:36:49;;;;;;;59.97;24.83;;;;;;;;;;5073856;28;20495;-74
2022/11/22 03:39:15;;;;;;;42.55;23.92;;;;;;;;;;5076229;28;20475;-73
2022/11/22 03:41:41;;;;;;;41.87;24.07;;;;;;;;;;5085350;28;20420;-74
2022/11/22 03:44:07;;;;;;;39.75;23.13;;;;;;;;;;5096500;28;20401;-73
2022/11/22 03:46:33;;;;;;;43.60;23.70;;;;;;;;;;5090297;28;20491;-73
2022/11/22 03:48:59;;;;;;;42.28;24.73;;;;;;;;;;5059143;28;20441;-73
2022/11/22 03:51:26;;;;;;;40.25;24.10;;;;;;;;;;5082961;28;20481;-74
2022/11/22 03:53:52;;;;;;;44.95;23.33;;;;;;;;;;5090796;28;20420;-74
2022/11/22 03:56:18;;;;;;;77.57;27.20;;;;;;;;;;5092068;28;20416;-74
2022/11/22 03:58:44;;;;;;;43.08;24.25;;;;;;;;;;5087050;28;20453;-74
2022/11/22 04:01:10;;;;;;;45.08;25.08;;;;;;;;;;5076331;28;20402;-74
2022/11/22 04:03:36;;;;;;;44.25;24.25;;;;;;;;;;5075989;28;20422;-74
2022/11/22 04:06:02;;;;;;;46.47;24.92;;;;;;;;;;5078930;28;20438;-73
2022/11/22 04:08:28;;;;;;;43.80;24.13;;;;;;;;;;5074833;28;20743;-73
2022/11/22 04:10:54;;;;;;;42.15;24.75;;;;;;;;;;5076463;28;20398;-73
2022/11/22 04:13:20;;;;;;;49.87;24.83;;;;;;;;;;5085115;28;20453;-73
2022/11/22 04:15:46;;;;;;;44.30;24.75;;;;;;;;;;5094091;28;20419;-73
2022/11/22 04:18:13;;;;;;;42.93;24.40;;;;;;;;;;5081429;28;20923;-73
2022/11/22 04:23:25;;;;;;;45.35;23.70;;;;;;;;;;5075925;28;20452;-74
2022/11/22 04:25:53;;;;;;;43.67;24.23;;;;;;;;;;5096728;28;20741;-74
2022/11/22 04:28:20;;;;;;;40.63;24.50;;;;;;;;;;5074722;28;20426;-72
2022/11/22 04:33:31;;;;;;;45.25;24.23;;;;;;;;;;5082180;28;20432;-72
2022/11/22 04:35:57;;;;;;;42.28;24.85;;;;;;;;;;5086172;28;20416;-72
2022/11/22 04:38:23;;;;;;;44.53;24.80;;;;;;;;;;5079034;28;20426;-72
2022/11/22 04:40:49;;;;;;;47.15;24.83;;;;;;;;;;5074834;28;20445;-73
2022/11/22 04:46:30;;;;;;;50.38;25.27;;;;;;;;;;5038372;28;20465;-73
2022/11/22 04:48:56;;;;;;;45.25;25.02;;;;;;;;;;5018361;28;20425;-73
2022/11/22 04:54:07;;;;;;;42.65;24.33;;;;;;;;;;5075060;28;20398;-73
2022/11/22 04:56:33;;;;;;;43.83;24.35;;;;;;;;;;5074397;28;20441;-73
2022/11/22 04:58:59;;;;;;;42.38;25.65;;;;;;;;;;5092331;28;20480;-73
2022/11/22 05:01:25;;;;;;;46.60;25.33;;;;;;;;;;5083084;28;20426;-73
2022/11/22 05:03:51;;;;;;;44.42;25.25;;;;;;;;;;5076211;28;20440;-73
2022/11/22 05:06:17;;;;;;;47.55;24.65;;;;;;;;;;5087569;28;20423;-73
2022/11/22 05:08:43;;;;;;;44.63;24.60;;;;;;;;;;5074201;28;20425;-73
2022/11/22 05:11:09;;;;;;;53.55;26.85;;;;;;;;;;5074908;28;20402;-72
2022/11/22 05:13:36;;;;;;;41.72;24.92;;;;;;;;;;5073130;28;20496;-72
2022/11/22 05:16:03;;;;;;;43.80;26.23;;;;;;;;;;5057036;28;20448;-72
2022/11/22 05:18:29;;;;;;;46.42;27.20;;;;;;;;;;5073058;28;20442;-73
2022/11/22 05:20:55;;;;;;;51.90;28.13;;;;;;;;;;5074034;28;20837;-73
2022/11/22 05:26:07;;;;;;;47.75;28.52;;;;;;;;;;5076765;28;20447;-73
2022/11/22 05:28:35;;;;;;;44.92;26.17;;;;;;;;;;5075310;28;20463;-73
2022/11/22 05:31:37;;;;;;;44.72;26.65;;;;;;;;;;5091969;28;20457;-72
2022/11/22 05:34:04;;;;;;;42.47;25.13;;;;;;;;;;5002882;28;20508;-71
2022/11/22 05:36:31;;;;;;;43.30;24.65;;;;;;;;;;5060750;28;20419;-71
2022/11/22 05:38:57;;;;;;;42.50;24.67;;;;;;;;;;5077874;28;20422;-72
2022/11/22 05:41:23;;;;;;;43.25;23.83;;;;;;;;;;5073800;28;20479;-72
2022/11/22 05:43:49;;;;;;;43.90;23.70;;;;;;;;;;5073488;28;20766;-72
2022/11/22 05:46:17;;;;;;;102.10;30.40;;;;;;;;;;5079573;28;20429;-72
2022/11/22 05:48:43;;;;;;;43.53;24.27;;;;;;;;;;5057084;28;20414;-72
2022/11/22 05:51:11;;;;;;;44.40;24.08;;;;;;;;;;5041011;28;20433;-73
2022/11/22 05:53:37;;;;;;;45.43;25.30;;;;;;;;;;5056330;28;20857;-73
2022/11/22 05:56:10;;;;;;;49.00;24.87;;;;;;;;;;5056848;28;20571;-73
2022/11/22 05:58:37;;;;;;;46.60;25.10;;;;;;;;;;5058120;28;20479;-79
2022/11/22 06:01:07;;;;;;;48.08;26.25;;;;;;;;;;5084875;28;20783;-80
2022/11/22 06:03:33;;;;;;;62.67;27.02;;;;;;;;;;5071190;28;20917;-79
2022/11/22 06:05:59;;;;;;;41.90;23.30;;;;;;;;;;5082972;28;20420;-81
2022/11/22 06:08:25;;;;;;;44.10;23.92;;;;;;;;;;5071876;28;20548;-81
2022/11/22 06:10:51;;;;;;;41.83;23.50;;;;;;;;;;5073918;28;20413;-80
2022/11/22 06:13:17;;;;;;;41.97;23.98;;;;;;;;;;5075709;28;20433;-80
2022/11/22 06:15:43;;;;;;;40.22;22.40;;;;;;;;;;5072913;28;20434;-80
2022/11/22 06:18:09;;;;;;;41.45;23.75;;;;;;;;;;5074582;28;20473;-79
2022/11/22 06:20:35;;;;;;;155.25;30.85;;;;;;;;;;5086023;28;20427;-80
2022/11/22 06:23:01;;;;;;;175.75;33.75;;;;;;;;;;5073565;28;20477;-79
2022/11/22 06:25:27;;;;;;;75.13;24.52;;;;;;;;;;5061023;28;20468;-79
2022/11/22 06:27:53;;;;;;;102.72;28.15;;;;;;;;;;5089103;28;20419;-79
2022/11/22 06:30:20;;;;;;;129.60;28.80;;;;;;;;;;5067661;28;20440;-80
2022/11/22 06:32:46;;;;;;;91.40;28.52;;;;;;;;;;5061257;28;20426;-79
2022/11/22 06:35:12;;;;;;;40.25;21.33;;;;;;;;;;5077729;28;20509;-80
2022/11/22 06:37:38;;;;;;;40.40;21.85;;;;;;;;;;5077635;28;20406;-80
2022/11/22 06:40:06;;;;;;;174.15;32.60;;;;;;;;;;5089348;28;20424;-81
2022/11/22 06:42:32;;;;;;;81.28;24.70;;;;;;;;;;5096596;28;20970;-80
2022/11/22 06:44:58;;;;;;;305.25;42.42;;;;;;;;;;5092049;28;20489;-79
2022/11/22 06:47:24;;;;;;;135.25;27.90;;;;;;;;;;5076902;28;21148;-80
2022/11/22 06:49:50;;;;;;;131.00;28.90;;;;;;;;;;5083336;28;20425;-79
2022/11/22 06:52:16;;;;;;;99.93;23.63;;;;;;;;;;5087263;28;20500;-79
2022/11/22 06:54:42;;;;;;;66.30;23.70;;;;;;;;;;5077068;28;20449;-80
2022/11/22 06:57:08;;;;;;;56.88;22.20;;;;;;;;;;5090239;28;20915;-80
2022/11/22 06:59:35;;;;;;;72.20;23.37;;;;;;;;;;5092498;28;20492;-81
2022/11/22 07:02:01;;;;;;;52.95;21.38;;;;;;;;;;5074834;28;20421;-80
2022/11/22 07:04:27;;;;;;;41.10;20.65;;;;;;;;;;5075042;28;20409;-79
2022/11/22 07:06:53;;;;;;;165.38;28.65;;;;;;;;;;5082980;28;20803;-80
2022/11/22 07:09:19;;;;;;;41.00;20.50;;;;;;;;;;5088915;28;20804;-80
2022/11/22 07:11:45;;;;;;;61.35;23.05;;;;;;;;;;5095865;28;20396;-81
2022/11/22 07:14:11;;;;;;;40.08;19.90;;;;;;;;;;5070259;28;20417;-80
2022/11/22 07:16:38;;;;;;;38.85;19.45;;;;;;;;;;5086009;28;20420;-80
2022/11/22 07:19:04;;;;;;;34.40;19.23;;;;;;;;;;5081703;28;20452;-81
2022/11/22 07:21:31;;;;;;;42.50;20.15;;;;;;;;;;5076634;28;20414;-80
2022/11/22 07:23:57;;;;;;;40.78;20.33;;;;;;;;;;5077050;28;20886;-80
2022/11/22 07:26:24;;;;;;;36.35;18.65;;;;;;;;;;5059972;28;21059;-80
2022/11/22 07:28:50;;;;;;;38.10;18.07;;;;;;;;;;5063225;28;20494;-81
2022/11/22 07:31:17;;;;;;;36.60;17.98;;;;;;;;;;5048749;28;20453;-82
2022/11/22 07:33:44;;;;;;;32.60;15.15;;;;;;;;;;5085231;28;20794;-80
2022/11/22 07:36:11;;;;;;;35.35;15.80;;;;;;;;;;5082034;28;20414;-80
2022/11/22 07:38:38;;;;;;;33.80;15.13;;;;;;;;;;5079476;28;20422;-80
2022/11/22 07:41:04;;;;;;;29.00;14.30;;;;;;;;;;5081102;28;20542;-79
2022/11/22 07:43:31;;;;;;;35.40;15.67;;;;;;;;;;5080799;28;20503;-79
2022/11/22 07:46:00;;;;;;;29.73;13.75;;;;;;;;;;5079617;28;20504;-80
2022/11/22 07:48:26;;;;;;;27.65;13.52;;;;;;;;;;5076816;28;20418;-82
2022/11/22 07:50:52;;;;;;;28.07;13.47;;;;;;;;;;5077128;28;20944;-81
2022/11/22 07:53:18;;;;;;;27.77;13.10;;;;;;;;;;5075771;28;20913;-81
2022/11/22 07:55:44;;;;;;;29.85;14.00;;;;;;;;;;5044164;28;20428;-82
2022/11/22 07:58:10;;;;;;;25.40;12.10;;;;;;;;;;5063957;28;20747;-81
2022/11/22 08:00:36;;;;;;;28.15;13.43;;;;;;;;;;5059948;28;20428;-82
2022/11/22 08:03:03;;;;;;;26.43;11.80;;;;;;;;;;5075770;28;20420;-81
2022/11/22 08:05:29;;;;;;;22.20;10.85;;;;;;;;;;5081453;28;21908;-72
2022/11/22 08:07:55;;;;;;;25.67;11.10;;;;;;;;;;5068417;28;20446;-72
2022/11/22 08:10:21;;;;;;;31.52;11.38;;;;;;;;;;5086727;28;20417;-72
2022/11/22 08:12:47;;;;;;;27.60;10.63;;;;;;;;;;5067163;28;20412;-72
2022/11/22 08:15:15;;;;;;;25.58;10.27;;;;;;;;;;5087904;28;20446;-72
2022/11/22 08:17:41;;;;;;;22.33;9.85;;;;;;;;;;5083709;28;20958;-72
2022/11/22 08:20:10;;;;;;;23.05;9.73;;;;;;;;;;5091767;28;20431;-72
2022/11/22 08:22:37;;;;;;;44.75;11.25;;;;;;;;;;5074182;28;20991;-72
2022/11/22 08:25:03;;;;;;;24.40;8.50;;;;;;;;;;5076879;28;20507;-72
2022/11/22 08:27:32;;;;;;;21.38;7.80;;;;;;;;;;5080419;28;20413;-73
2022/11/22 08:29:58;;;;;;;23.50;8.57;;;;;;;;;;5050080;28;20424;-73
2022/11/22 08:32:24;;;;;;;26.75;9.77;;;;;;;;;;5080536;28;20422;-72
2022/11/22 08:34:50;;;;;;;24.35;8.68;;;;;;;;;;5082475;28;20822;-72
2022/11/22 08:37:16;;;;;;;23.20;8.00;;;;;;;;;;5087652;28;20496;-73
2022/11/22 08:39:42;;;;;;;19.25;6.47;;;;;;;;;;5086693;28;20418;-73
2022/11/22 08:42:08;;;;;;;19.75;7.25;;;;;;;;;;5057625;28;20422;-73
2022/11/22 08:44:34;;;;;;;18.70;7.15;;;;;;;;;;5067655;28;20418;-73
2022/11/22 08:47:00;;;;;;;20.45;7.32;;;;;;;;;;5081288;28;20425;-73
2022/11/22 08:49:26;;;;;;;17.73;6.28;;;;;;;;;;5066042;28;20417;-73
2022/11/22 08:51:52;;;;;;;15.80;5.55;;;;;;;;;;5081561;27;20505;-70
2022/11/22 08:54:18;;;;;;;14.97;5.73;;;;;;;;;;5080011;28;20424;-73
2022/11/22 08:56:45;;;;;;;15.82;6.20;;;;;;;;;;5073643;28;20421;-71
2022/11/22 08:59:11;;;;;;;19.67;6.17;;;;;;;;;;5088407;28;20498;-72
2022/11/22 09:01:37;;;;;;;18.25;5.68;;;;;;;;;;5074966;28;20408;-72
2022/11/22 09:04:03;;;;;;;16.75;5.85;;;;;;;;;;5079322;28;20419;-72
2022/11/22 09:06:30;;;;;;;19.10;6.10;;;;;;;;;;5067531;28;20772;-73
2022/11/22 09:08:56;;;;;;;14.63;5.20;;;;;;;;;;5080706;28;20419;-74
2022/11/22 09:11:22;;;;;;;15.93;5.30;;;;;;;;;;5066317;28;20497;-72
2022/11/22 09:13:49;;;;;;;16.77;6.20;;;;;;;;;;5056218;28;20451;-72
2022/11/22 09:16:16;;;;;;;17.15;6.47;;;;;;;;;;5076051;28;20466;-72
2022/11/22 09:18:42;;;;;;;17.13;6.07;;;;;;;;;;5084386;28;20444;-72
2022/11/22 09:21:10;;;;;;;20.23;6.00;;;;;;;;;;5091401;27;20493;-73
2022/11/22 09:23:36;;;;;;;14.20;5.60;;;;;;;;;;5078522;28;20446;-72
2022/11/22 09:26:07;;;;;;;15.17;5.57;;;;;;;;;;5075922;28;20935;-72
2022/11/22 09:28:33;;;;;;;14.15;5.53;;;;;;;;;;5070681;28;20509;-72
2022/11/22 09:31:07;;;;;;;17.58;6.00;;;;;;;;;;5082045;28;20494;-72
2022/11/22 09:33:35;;;;;;;14.45;6.28;;;;;;;;;;5086716;28;20416;-73
2022/11/22 09:36:02;;;;;;;15.40;6.10;;;;;;;;;;5089166;28;20412;-73
2022/11/22 09:38:29;;;;;;;14.65;6.38;;;;;;;;;;5074019;28;20430;-73
2022/11/22 09:40:55;;;;;;;18.58;6.88;;;;;;;;;;5079593;28;20893;-73
2022/11/22 09:43:50;;;;;;;18.38;7.45;;;;;;;;;;5077399;28;20540;-73
2022/11/22 09:46:20;;;;;;;17.50;7.55;;;;;;;;;;5040734;28;20516;-73
2022/11/22 09:48:46;;;;;;;17.00;7.50;;;;;;;;;;5077045;28;20413;-73
2022/11/22 09:51:14;;;;;;;19.50;8.57;;;;;;;;;;5075333;28;20440;-73
2022/11/22 09:53:45;;;;;;;17.80;7.28;;;;;;;;;;5077821;28;20476;-72
2022/11/22 09:56:12;;;;;;;17.90;7.80;;;;;;;;;;5090353;28;20465;-72
2022/11/22 09:58:41;;;;;;;16.83;6.47;;;;;;;;;;5089238;28;20499;-73
2022/11/22 10:01:13;;;;;;;16.48;6.43;;;;;;;;;;5092536;28;20416;-72
2022/11/22 10:03:42;;;;;;;15.60;6.78;;;;;;;;;;5075898;28;20429;-72
2022/11/22 10:06:13;;;;;;;12.38;6.38;;;;;;;;;;5084488;28;20410;-72
2022/11/22 10:08:46;;;;;;;13.98;7.30;;;;;;;;;;5086074;28;20417;-73
2022/11/22 10:11:17;;;;;;;19.48;6.30;;;;;;;;;;5075097;28;20419;-73
2022/11/22 10:13:48;;;;;;;16.83;6.27;;;;;;;;;;5076424;28;20452;-73
2022/11/22 10:16:17;;;;;;;13.48;5.60;;;;;;;;;;5055185;28;20414;-72
2022/11/22 10:18:52;;;;;;;12.60;5.20;;;;;;;;;;5074092;28;20405;-72
2022/11/22 13:14:41;;;;;;;7.80;2.67;;;;;;;;;;5907013;22;20427;-78
2022/11/22 13:17:08;;;;;;;7.90;2.70;;;;;;;;;;5490178;23;20428;-71
2022/11/22 13:22:36;;;;;;;9.35;2.78;;;;;;;;;;5060038;23;20926;-74
2022/11/22 13:25:02;;;;;;;6.70;2.50;;;;;;;;;;5046247;28;20442;-73
2022/11/22 13:27:30;;;;;;;7.32;2.80;;;;;;;;;;5052056;28;20483;-73
2022/11/22 13:29:58;;;;;;;8.90;2.50;;;;;;;;;;5050294;28;20830;-74
2022/11/22 13:32:28;;;;;;;7.40;2.00;;;;;;;;;;5046029;28;20443;-74
2022/11/22 13:35:12;;;;;;;7.13;1.87;;;;;;;;;;5033932;28;20518;-74
2022/11/22 13:37:41;;;;;;;6.78;2.10;;;;;;;;;;5053817;28;20415;-76
2022/11/22 13:40:08;;;;;;;8.05;2.05;;;;;;;;;;5028599;28;20426;-71
2022/11/22 13:42:34;;;;;;;8.00;3.35;;;;;;;;;;5044879;28;20454;-72
2022/11/22 13:45:01;;;;;;;8.32;3.28;;;;;;;;;;5045737;28;20447;-72
2022/11/22 13:47:37;;;;;;;8.43;2.10;;;;;;;;;;5044233;28;20518;-71
2022/11/22 13:50:23;;;;;;;7.25;2.15;;;;;;;;;;5034921;28;20427;-73
2022/11/22 13:52:51;;;;;;;7.60;2.63;;;;;;;;;;5028366;28;20656;-73
2022/11/22 13:55:31;;;;;;;8.43;2.50;;;;;;;;;;5028576;28;20423;-73
2022/11/22 13:58:17;;;;;;;9.30;2.20;;;;;;;;;;5046883;28;20429;-73
2022/11/22 14:00:43;;;;;;;7.57;2.33;;;;;;;;;;5044698;28;20431;-73
2022/11/22 14:03:15;;;;;;;7.85;2.40;;;;;;;;;;5049516;28;20447;-73
2022/11/22 14:05:44;;;;;;;9.18;3.03;;;;;;;;;;5045733;28;20425;-74
2022/11/22 14:15:02;;;;;;;6.57;2.90;;;7.40;99.90;;;;;;5597208;23;21723;31
2022/11/22 14:17:31;;;;;;;7.25;2.97;;;;;;;;;;5223183;22;20430;-72
2022/11/22 14:23:11;;;;;;;11.38;3.20;;;;;;;;;;5647955;22;20715;-82
2022/11/22 14:25:40;;;;;;;8.77;2.97;;;;;;;;;;5042690;28;20424;-81
2022/11/22 14:28:33;;;;;;;7.47;2.80;;;;;;;;;;5030202;28;20424;-81
2022/11/22 14:30:59;;;;;;;7.53;2.25;;;;;;;;;;5038923;28;20449;-81
2022/11/22 14:33:27;;;;;;;6.63;2.47;;;;;;;;;;5052670;28;20428;-82
2022/11/22 14:36:17;;;;;;;7.78;2.67;;;;;;;;;;5044700;28;20425;-81
2022/11/22 14:38:43;;;;;;;7.68;2.80;;;;;;;;;;5017192;28;20509;-80
2022/11/22 14:41:28;;;;;;;7.47;2.90;;;;;;;;;;5023863;28;20485;-80
2022/11/22 14:44:14;;;;;;;7.82;2.90;;;;;;;;;;5050598;28;20995;-80
2022/11/22 14:46:44;;;;;;;10.13;5.03;;;;;;;;;;5049104;28;20423;-81
2022/11/22 14:49:17;;;;;;;10.93;4.80;;;;;;;;;;5033464;28;20487;-79
2022/11/22 14:51:43;;;;;;;9.00;4.87;;;;;;;;;;5045535;28;22439;-79
2022/11/22 14:54:20;;;;;;;8.48;3.70;;;;;;;;;;5028623;28;20423;-79
2022/11/22 14:56:46;;;;;;;9.48;3.55;;;;;;;;;;5052144;28;20430;-80
2022/11/22 14:59:39;;;;;;;11.57;4.57;;;;;;;;;;5032922;28;20917;-80
2022/11/22 15:02:18;;;;;;;7.73;3.33;;;;;;;;;;5055257;28;20538;-80
2022/11/22 15:05:03;;;;;;;6.45;2.22;;;;;;;;;;5032464;28;20427;-80
2022/11/22 15:07:41;;;;;;;5.90;2.13;;;;;;;;;;5051447;28;20798;-81
2022/11/22 15:10:16;;;;;;;7.05;1.92;;;;;;;;;;5055048;28;20434;-81
2022/11/22 15:12:48;;;;;;;7.75;3.17;;;;;;;;;;5073105;28;20422;-81
2022/11/22 15:15:14;;;;;;;4.90;2.70;;;;;;;;;;5037262;28;20419;-81
2022/11/22 15:17:40;;;;;;;7.15;2.25;;;;;;;;;;5045377;28;20427;-79
2022/11/22 15:20:32;;;;;;;7.50;2.50;;;7.10;99.90;;;;;;5058893;28;20536;-81
2022/11/22 15:23:04;;;;;;;6.90;1.98;;;;;;;;;;5036554;28;20741;-81
2022/11/22 15:25:30;;;;;;;6.88;2.20;;;;;;;;;;5037988;28;20419;-80
2022/11/22 15:27:57;;;;;;;6.38;2.20;;;;;;;;;;5058375;28;20423;-79
2022/11/22 15:30:26;;;;;;;6.25;2.63;;;;;;;;;;5060065;28;20423;-79
2022/11/22 15:33:02;;;;;;;7.70;3.07;;;;;;;;;;5022964;28;20489;-80
2022/11/22 15:35:41;;;;;;;8.65;3.63;;;;;;;;;;5042538;28;20411;-81
2022/11/22 15:38:12;;;;;;;10.73;5.13;;;;;;;;;;5035881;28;20516;-81
2022/11/22 15:40:39;;;;;;;8.35;2.90;;;;;;;;;;5053728;28;20498;-81
2022/11/22 15:43:09;;;;;;;6.05;2.50;;;;;;;;;;5034839;28;20814;-81
2022/11/22 15:45:38;;;;;;;7.78;2.30;;;;;;;;;;5050270;28;20415;-81
2022/11/22 15:48:24;;;;;;;5.87;2.60;;;;;;;;;;5051837;28;20462;-81
2022/11/22 15:51:18;;;;;;;5.55;2.10;;;;;;;;;;5045236;28;20790;-79
2022/11/22 15:53:57;;;;;;;7.77;2.43;;;;;;;;;;5048042;28;20479;-79
2022/11/22 15:56:31;;;;;;;7.50;2.20;;;;;;;;;;5048720;28;20911;-80
2022/11/22 15:58:59;;;;;;;5.88;2.30;;;;;;;;;;5029916;28;20515;-81
2022/11/22 16:01:25;;;;;;;8.07;2.78;;;;;;;;;;5054088;28;20465;-79
2022/11/22 16:03:55;;;;;;;9.77;3.10;;;;;;;;;;5048411;28;20510;-80
2022/11/22 16:06:31;;;;;;;7.68;3.10;;;;;;;;;;5052356;28;20477;-80
2022/11/22 16:08:58;;;;;;;6.93;2.40;;;;;;;;;;5030817;28;20487;-81
2022/11/22 16:11:38;;;;;;;6.00;2.47;;;;;;;;;;5055523;28;20396;-81
2022/11/22 16:14:24;;;;;;;7.97;3.47;;;;;;;;;;5032660;28;20427;-80
2022/11/22 16:16:51;;;;;;;10.43;3.33;;;;;;;;;;5030784;28;20422;-81
2022/11/22 16:19:22;;;;;;;8.00;3.95;;;;;;;;;;5041080;28;20423;-80
2022/11/22 16:21:55;;;;;;;10.48;3.50;;;;;;;;;;5055845;28;20467;-79
2022/11/22 16:24:26;;;;;;;7.38;3.55;;;;;;;;;;5057463;28;20435;-81
2022/11/22 16:27:04;;;;;;;7.60;3.42;;;;;;;;;;5037626;28;20897;-81
2022/11/22 16:29:35;;;;;;;8.77;4.18;;;;;;;;;;5054866;28;20439;-81
2022/11/22 16:32:12;;;;;;;8.48;3.28;;;;;;;;;;5039407;28;20415;-80
2022/11/22 16:34:42;;;;;;;8.27;3.00;;;;;;;;;;5062844;28;20423;-80
2022/11/22 16:37:24;;;;;;;8.50;3.50;;;;;;;;;;5044734;28;20517;-81
2022/11/22 16:39:51;;;;;;;7.68;3.35;;;;;;;;;;4975999;28;20750;-80
2022/11/22 16:42:17;;;;;;;9.02;3.00;;;;;;;;;;5037119;28;20422;-81
2022/11/22 16:44:43;;;;;;;9.95;3.30;;;;;;;;;;4976466;28;20412;-81
2022/11/22 16:47:13;;;;;;;6.63;3.40;;;;;;;;;;5036168;28;20412;-81
2022/11/22 16:49:39;;;;;;;8.98;3.20;;;;;;;;;;5054557;28;20450;-81
2022/11/22 16:52:09;;;;;;;8.07;2.42;;;;;;;;;;5055294;28;20751;-80
2022/11/22 16:54:35;;;;;;;6.75;2.47;;;;;;;;;;5034421;28;20462;-81
2022/11/22 16:57:02;;;;;;;6.43;3.00;;;;;;;;;;5054029;28;20740;-79
2022/11/22 16:59:28;;;;;;;6.85;2.95;;;;;;;;;;5037784;28;20779;-81
2022/11/22 17:01:54;;;;;;;6.10;2.38;;;;;;;;;;5027032;28;20834;-81
2022/11/22 17:04:21;;;;;;;7.13;2.35;;;;;;;;;;5050462;28;20419;-80
2022/11/22 17:06:47;;;;;;;7.15;2.47;;;;;;;;;;5050964;28;20471;-80
2022/11/22 17:09:13;;;;;;;7.53;2.90;;;;;;;;;;5050404;28;20419;-81
2022/11/22 17:11:41;;;;;;;7.22;2.70;;;;;;;;;;5036208;28;20503;-80
2022/11/22 17:14:09;;;;;;;6.72;2.60;;;;;;;;;;5048894;28;20424;-80
2022/11/22 17:16:35;;;;;;;8.10;3.47;;;;;;;;;;5046107;28;20936;-80
2022/11/22 17:19:01;;;;;;;8.63;3.80;;;;;;;;;;5053945;28;20907;-80
2022/11/22 17:21:27;;;;;;;9.93;3.90;;;;;;;;;;5022038;28;20413;-79
2022/11/22 17:23:54;;;;;;;8.90;3.47;;;;;;;;;;5051543;28;20432;-79
2022/11/22 17:26:20;;;;;;;8.10;2.97;;;;;;;;;;5042244;28;20419;-81
2022/11/22 17:28:46;;;;;;;10.23;3.95;;;;;;;;;;5049858;28;20454;-80
2022/11/22 17:31:13;;;;;;;10.38;3.83;;;;;;;;;;5050963;28;20423;-78
2022/11/22 17:33:39;;;;;;;8.38;3.30;;;;;;;;;;5035834;28;20415;-79
2022/11/22 17:36:13;;;;;;;7.32;3.10;;;;;;;;;;5044779;28;20584;-79
2022/11/22 17:38:39;;;;;;;7.43;2.60;;;;;;;;;;5047781;28;20430;-80
2022/11/22 17:41:05;;;;;;;7.47;3.00;;;;;;;;;;5042769;28;20432;-79
2022/11/22 17:43:32;;;;;;;7.10;2.78;;;;;;;;;;5052007;28;20420;-79
2022/11/22 17:45:59;;;;;;;6.32;2.63;;;;;;;;;;5051495;28;20493;-80
2022/11/22 17:48:26;;;;;;;7.18;3.10;;;;;;;;;;5049399;28;20423;-79
2022/11/22 17:50:52;;;;;;;6.30;2.97;;;;;;;;;;5020584;28;20461;-80
2022/11/22 17:53:18;;;;;;;8.93;3.92;;;;;;;;;;5049047;28;20427;-80